Time;durP1;ratioP1;P1;durP2;ratioP2;P2;SDS_P1;SDS_P2;PMS_P1;PMS_P2;Temp;Humidity;BMP_temperature;BMP_pressure;BME280_temperature;BME280_humidity;BME280_pressure;Samples;Min_cycle;Max_cycle;Signal;HPM_P1;HPM_P2
2024/04/12 00:01:45;;;;;;;8.40;2.08;;;;;;;10.83;100.00;93804.13;5506998;25;19998;-78
2024/04/12 00:04:18;;;;;;;;;;;;;;;10.93;100.00;93811.22;5477791;26;20541;-78
2024/04/12 00:06:53;;;;;;;6.28;1.88;;;;;;;11.03;100.00;93800.81;5460771;26;19930;-78
2024/04/12 00:09:20;;;;;;;5.72;1.90;;;;;;;11.14;100.00;93808.69;5476034;25;19994;-78
2024/04/12 00:11:51;;;;;;;7.65;2.17;;;;;;;11.24;100.00;93806.13;5505290;26;20020;-78
2024/04/12 00:14:17;;;;;;;7.90;2.38;;;;;;;11.27;100.00;93800.34;5499375;25;20011;-78
2024/04/12 00:16:44;;;;;;;7.22;2.38;;;;;;;11.22;100.00;93808.19;5504286;26;20440;-78
2024/04/12 00:19:18;;;;;;;6.18;2.03;;;;;;;11.14;100.00;93803.44;5484448;26;20017;-78
2024/04/12 00:21:52;;;;;;;10.98;2.45;;;;;;;11.02;100.00;93799.22;5499896;26;20001;-78
2024/04/12 00:24:18;;;;;;;8.35;2.25;;;;;;;10.93;100.00;93799.97;5493136;26;20077;-78
2024/04/12 00:26:48;;;;;;;9.40;2.45;;;;;;;10.84;100.00;93797.81;5501550;26;20006;-78
2024/04/12 00:29:25;;;;;;;3.85;2.00;;;;;;;10.81;100.00;93802.81;5503208;26;20326;-78
2024/04/12 00:31:55;;;;;;;10.48;2.03;;;;;;;10.71;100.00;93787.81;5465393;26;19994;-78
2024/04/12 00:34:26;;;;;;;7.95;2.20;;;;;;;10.74;100.00;93796.97;5496561;25;20010;-78
2024/04/12 00:37:06;;;;;;;6.10;2.47;;;;;;;10.72;100.00;93796.47;5486314;25;20020;-78
2024/04/12 00:39:41;;;;;;;9.15;2.40;;;;;;;10.69;100.00;93799.59;5509510;26;20505;-78
2024/04/12 00:42:08;;;;;;;7.55;2.10;;;;;;;10.63;100.00;93799.56;5512154;26;20005;-78
2024/04/12 00:44:41;;;;;;;6.18;2.25;;;;;;;10.61;100.00;93793.78;5494738;26;20001;-78
2024/04/12 00:47:10;;;;;;;11.85;2.40;;;;;;;10.63;100.00;93802.19;5500314;26;20006;-78
2024/04/12 00:49:39;;;;;;;7.30;2.10;;;;;;;10.61;100.00;93793.78;5476070;26;20002;-78
2024/04/12 00:52:06;;;;;;;8.45;2.20;;;;;;;10.55;100.00;93791.41;5482649;25;20005;-78
2024/04/12 00:54:32;;;;;;;10.00;2.55;;;;;;;10.56;100.00;93801.63;5490573;26;19997;-78
2024/04/12 00:56:59;;;;;;;7.93;2.40;;;;;;;10.54;100.00;93793.22;5502289;26;19994;-78
2024/04/12 00:59:25;;;;;;;7.70;2.25;;;;;;;10.53;100.00;93802.13;5502972;26;20413;-78
2024/04/12 01:01:55;;;;;;;7.18;2.20;;;;;;;10.53;100.00;93798.72;5489090;26;20013;-78
2024/04/12 01:04:21;;;;;;;5.35;1.98;;;;;;;10.52;100.00;93799.75;5496468;25;20016;-78
2024/04/12 01:06:47;;;;;;;7.50;2.20;;;;;;;10.54;100.00;93808.16;5495915;26;20014;-78
2024/04/12 01:09:13;;;;;;;5.55;2.10;;;;;;;10.53;100.00;93807.34;5496156;25;20009;-78
2024/04/12 01:11:39;;;;;;;7.50;2.10;;;;;;;10.52;100.00;93805.00;5492255;26;19997;-78
2024/04/12 01:14:13;;;;;;;9.30;2.35;;;;;;;10.52;100.00;93811.03;5498348;26;20001;-79
2024/04/12 01:16:39;;;;;;;7.55;2.20;;;;;;;10.52;100.00;93815.47;5504372;25;20034;-78
2024/04/12 01:19:05;;;;;;;7.95;2.33;;;;;;;10.49;100.00;93813.34;5500616;26;20493;-78
2024/04/12 01:21:31;;;;;;;4.00;1.70;;;;;;;10.45;100.00;93809.66;5496197;26;20054;-78
2024/04/12 01:23:57;;;;;;;7.13;1.90;;;;;;;10.41;100.00;93818.03;5499881;26;20053;-78
2024/04/12 01:26:24;;;;;;;7.13;2.08;;;;;;;10.39;100.00;93814.84;5478749;26;20497;-79
2024/04/12 01:28:51;;;;;;;5.28;2.00;;;;;;;10.37;100.00;93821.38;5498522;26;20006;-78
2024/04/12 01:31:17;;;;;;;7.65;1.90;;;;;;;10.37;100.00;93821.38;5444143;26;20005;-78
2024/04/12 01:33:48;;;;;;;5.88;2.00;;;;;;;10.34;100.00;93814.06;5443938;26;20027;-77
2024/04/12 01:36:17;;;;;;;8.75;2.05;;;;;;;10.32;100.00;93811.69;5444616;26;19999;-78
2024/04/12 01:38:53;;;;;;;5.15;2.10;;;;;;;10.31;100.00;93809.31;5425250;26;20023;-78
2024/04/12 01:41:22;;;;;;;7.32;2.33;;;;;;;10.32;100.00;93813.50;5426728;26;20003;-77
2024/04/12 01:43:52;;;;;;;6.95;2.20;;;;;;;10.32;100.00;93816.91;5444103;26;20006;-78
2024/04/12 01:46:27;;;;;;;10.32;2.00;;;;;;;10.27;100.00;93808.19;5443205;26;20108;-78
2024/04/12 01:48:57;;;;;;;5.72;2.20;;;;;;;10.34;100.00;93808.81;5432453;26;19996;-78
2024/04/12 01:51:25;;;;;;;5.75;2.13;;;;;;;10.34;100.00;93814.84;5429432;26;19995;-78
2024/04/12 01:53:57;;;;;;;6.13;2.50;;;;;;;10.35;100.00;93805.94;5444067;26;20013;-78
2024/04/12 01:56:23;;;;;;;;;;;;;;;10.35;100.00;93811.16;5432748;26;20011;-78
2024/04/12 01:58:51;;;;;;;5.50;2.25;;;;;;;10.33;100.00;93805.38;5418844;26;19932;-78
2024/04/12 02:01:17;;;;;;;6.88;2.40;;;;;;;10.32;100.00;93810.91;5443868;26;19998;-78
2024/04/12 02:03:47;;;;;;;5.95;2.30;;;;;;;10.28;100.00;93807.16;5432375;26;20591;-78
2024/04/12 02:06:15;;;;;;;9.07;2.53;;;;;;;10.25;100.00;93797.22;5443119;26;20003;-78
2024/04/12 02:08:44;;;;;;;4.68;2.17;;;;;;;10.27;100.00;93813.44;5441584;26;20499;-78
2024/04/12 02:11:11;;;;;;;9.38;2.38;;;;;;;10.23;100.00;93802.69;5443425;26;20002;-78
2024/04/12 02:13:37;;;;;;;6.30;2.30;;;;;;;10.24;100.00;93809.50;5416790;26;20423;-78
2024/04/12 02:16:10;;;;;;;7.20;2.28;;;;;;;10.24;100.00;93808.69;5426824;26;20013;-78
2024/04/12 02:18:38;;;;;;;6.38;2.00;;;;;;;10.23;100.00;93807.91;5443992;26;20488;-77
2024/04/12 02:21:10;;;;;;;6.88;2.10;;;;;;;10.25;100.00;93810.28;5442953;26;20556;-78
2024/04/12 02:23:37;;;;;;;9.95;2.17;;;;;;;10.23;100.00;93807.13;5431672;26;20424;-78
2024/04/12 02:26:05;;;;;;;6.90;2.15;;;;;;;10.17;100.00;93809.69;5413186;26;20076;-78
2024/04/12 02:28:36;;;;;;;5.35;2.13;;;;;;;10.14;100.00;93801.59;5443689;26;20450;-78
2024/04/12 02:31:08;;;;;;;4.60;2.10;;;;;;;10.12;100.00;93806.28;5476229;26;19997;-78
2024/04/12 02:33:34;;;;;;;7.55;1.98;;;;;;;10.13;100.00;93811.25;5465817;26;20026;-78
2024/04/12 02:36:11;;;;;;;6.30;1.88;;;;;;;10.12;100.00;93808.88;5452247;26;19998;-78
2024/04/12 02:38:38;;;;;;;7.78;1.92;;;;;;;10.10;100.00;93814.34;5516755;26;20421;-78
2024/04/12 02:41:05;;;;;;;12.75;2.05;;;;;;;10.07;100.00;93812.25;5484917;26;20017;-78
2024/04/12 02:43:32;;;;;;;5.05;1.90;;;;;;;10.07;100.00;93809.63;5456234;26;19997;-78
2024/04/12 02:46:03;;;;;;;8.75;1.95;;;;;;;10.07;100.00;93808.84;5467141;26;19997;-78
2024/04/12 02:48:28;;;;;;;7.60;1.85;;;;;;;10.05;100.00;93810.94;5494705;26;19998;-78
2024/04/12 02:50:57;;;;;;;7.45;1.88;;;;;;;10.05;100.00;93803.88;5494224;26;20801;-78
2024/04/12 02:53:25;;;;;;;6.47;1.73;;;;;;;10.03;100.00;93802.53;5485978;26;20068;-78
2024/04/12 02:56:10;;;;;;;8.15;2.17;;;;;;;10.03;100.00;93803.31;5468868;26;19997;-78
2024/04/12 02:58:40;;;;;;;10.20;1.92;;;;;;;10.07;100.00;93808.84;5484268;26;20016;-78
2024/04/12 03:01:17;;;;;;;8.43;1.95;;;;;;;10.07;100.00;93808.84;5464193;26;20013;-78
2024/04/12 03:03:51;;;;;;;8.05;2.42;;;;;;;10.00;100.00;93798.59;5499887;26;19999;-78
2024/04/12 03:06:24;;;;;;;4.78;1.80;;;;;;;10.06;100.00;93808.03;5493698;26;20022;-78
2024/04/12 03:08:59;;;;;;;5.18;2.50;;;;;;;10.08;100.00;93805.97;5497112;26;20029;-78
2024/04/12 03:11:29;;;;;;;9.30;2.45;;;;;;;10.08;100.00;93805.19;5479203;26;20077;-78
2024/04/12 03:14:03;;;;;;;7.65;2.03;;;;;;;10.01;100.00;93798.34;5479093;26;20012;-78
2024/04/12 03:16:30;;;;;;;5.97;1.83;;;;;;;10.05;100.00;93803.88;5501887;26;20480;-78
2024/04/12 03:18:57;;;;;;;5.82;2.00;;;;;;;10.06;100.00;93808.03;5500561;25;19998;-78
2024/04/12 03:21:30;;;;;;;9.55;2.00;;;;;;;10.06;100.00;93802.81;5503779;26;20006;-78
2024/04/12 03:23:57;;;;;;;;;;;;;;;10.05;100.00;93805.69;5484396;26;20013;-78
2024/04/12 03:26:24;;;;;;;5.57;1.95;;;;;;;10.07;100.00;93806.25;5509387;26;20352;-78
2024/04/12 03:28:54;;;;;;;10.18;2.00;;;;;;;10.08;100.00;93807.81;5469238;26;20360;-78
2024/04/12 03:31:26;;;;;;;7.63;1.92;;;;;;;10.07;100.00;93803.63;5490239;25;20467;-78
2024/04/12 03:33:56;;;;;;;7.68;1.83;;;;;;;10.09;100.00;93812.00;5500441;26;20008;-79
2024/04/12 03:36:26;;;;;;;3.85;1.80;;;;;;;10.09;100.00;93809.41;5496665;26;20013;-79
2024/04/12 03:41:50;;;;;;;4.43;1.42;;;;;;;10.11;100.00;93813.34;5493626;26;20005;-78
2024/04/12 03:44:20;;;;;;;5.82;2.10;;;;;;;10.14;100.00;93815.44;5498430;26;20001;-78
2024/04/12 03:46:50;;;;;;;7.30;1.70;;;;;;;10.14;100.00;93804.97;5509373;26;19997;-78
2024/04/12 03:49:21;;;;;;;7.60;2.30;;;;;;;10.15;100.00;93811.78;5490531;25;20346;-78
2024/04/12 03:51:49;;;;;;;8.90;2.00;;;;;;;10.18;100.00;93813.13;5471478;26;19994;-78
2024/04/12 03:54:19;;;;;;;9.10;1.98;;;;;;;10.20;100.00;93811.06;5497944;26;19997;-79
2024/04/12 03:56:49;;;;;;;9.85;1.95;;;;;;;10.17;100.00;93808.91;5485304;26;20013;-79
2024/04/12 03:59:16;;;;;;;6.80;1.80;;;;;;;10.17;100.00;93809.69;5465876;26;20041;-78
2024/04/12 04:01:44;;;;;;;10.25;2.30;;;;;;;10.15;100.00;93806.53;5505104;26;20409;-78
2024/04/12 04:04:17;;;;;;;7.07;2.15;;;;;;;10.14;100.00;93814.66;5497884;26;20070;-78
2024/04/12 04:06:50;;;;;;;7.22;2.05;;;;;;;10.11;100.00;93810.72;5502986;26;20037;-79
2024/04/12 04:09:19;;;;;;;9.57;1.92;;;;;;;10.12;100.00;93812.28;5497374;26;20463;-79
2024/04/12 04:11:48;;;;;;;6.63;1.92;;;;;;;10.09;100.00;93807.56;5508436;26;20004;-78
2024/04/12 04:14:19;;;;;;;6.53;1.92;;;;;;;10.15;100.00;93811.78;5500137;26;19994;-78
2024/04/12 04:16:56;;;;;;;7.90;1.70;;;;;;;10.16;100.00;93813.38;5495855;26;19994;-78
2024/04/12 04:19:39;;;;;;;5.32;1.58;;;;;;;10.17;100.00;93809.69;5478392;26;20009;-78
2024/04/12 04:22:21;;;;;;;11.95;2.40;;;;;;;10.16;100.00;93815.97;5509155;25;20480;-78
2024/04/12 04:24:51;;;;;;;7.25;2.13;;;;;;;10.11;100.00;93808.09;5474129;26;19998;-79
2024/04/12 04:27:17;;;;;;;8.10;2.33;;;;;;;10.12;100.00;93812.28;5481551;26;20010;-78
2024/04/12 04:29:46;;;;;;;7.50;1.90;;;;;;;10.14;100.00;93812.03;5501199;26;20010;-79
2024/04/12 04:32:11;;;;;;;10.48;2.10;;;;;;;10.13;100.00;93813.88;5452759;26;20007;-79
2024/04/12 04:34:37;;;;;;;7.88;2.10;;;;;;;10.12;100.00;93809.66;5435402;26;20014;-78
2024/04/12 04:37:05;;;;;;;5.57;2.28;;;;;;;10.10;100.00;93811.75;5437964;26;20003;-79
2024/04/12 04:39:32;;;;;;;12.23;2.35;;;;;;;10.11;100.00;93810.72;5451467;26;20010;-79
2024/04/12 04:41:58;;;;;;;7.72;2.08;;;;;;;10.09;100.00;93807.56;5439921;26;20099;-77
2024/04/12 04:44:25;;;;;;;9.70;2.35;;;;;;;10.15;100.00;93818.84;5444887;26;20017;-79
2024/04/12 04:46:51;;;;;;;6.57;2.22;;;;;;;10.15;100.00;93813.59;5448907;26;20006;-80
2024/04/12 04:49:19;;;;;;;4.18;1.92;;;;;;;10.16;100.00;93817.81;5438957;26;20431;-79
2024/04/12 04:51:46;;;;;;;5.00;2.00;;;;;;;10.18;100.00;93827.00;5437841;26;20010;-79
2024/04/12 04:54:13;;;;;;;5.03;1.80;;;;;;;10.21;100.00;93820.47;5445765;26;20021;-79
2024/04/12 04:56:41;;;;;;;6.60;2.20;;;;;;;10.23;100.00;93822.84;5448623;26;20443;-79
2024/04/12 04:59:16;;;;;;;6.25;2.40;;;;;;;10.26;100.00;93819.72;5439699;26;20451;-80
2024/04/12 05:01:48;;;;;;;8.50;2.22;;;;;;;10.29;100.00;93825.28;5432558;26;20006;-80
2024/04/12 05:04:21;;;;;;;6.20;2.08;;;;;;;10.29;100.00;93827.91;5438712;26;19999;-78
2024/04/12 05:06:47;;;;;;;7.28;2.28;;;;;;;10.30;100.00;93819.00;5432526;26;20011;-80
2024/04/12 05:09:21;;;;;;;6.93;2.30;;;;;;;10.39;100.00;93824.56;5417901;26;20014;-80
2024/04/12 05:11:50;;;;;;;6.25;2.00;;;;;;;10.48;100.00;93830.88;5428455;26;20003;-80
2024/04/12 05:17:09;;;;;;;8.20;2.00;;;;;;;10.65;100.00;93822.06;5430007;26;20007;-79
2024/04/12 05:19:43;;;;;;;7.00;2.15;;;;;;;10.72;100.00;93826.06;5454234;26;20005;-79
2024/04/12 05:22:10;;;;;;;8.73;2.00;;;;;;;10.81;100.00;93827.16;5462951;26;20031;-79
2024/04/12 05:24:36;;;;;;;5.82;2.13;;;;;;;10.89;100.00;93828.50;5451139;26;20003;-79
2024/04/12 05:27:05;;;;;;;7.72;2.33;;;;;;;10.98;100.00;93834.81;5463917;26;20069;-80
2024/04/12 05:29:32;;;;;;;8.73;1.77;;;;;;;11.06;100.00;93836.19;5437206;26;20013;-80
2024/04/12 05:31:59;;;;;;;7.88;2.03;;;;;;;11.17;100.00;93835.19;5504841;26;20002;-79
2024/04/12 05:34:28;;;;;;;6.38;2.00;;;;;;;11.25;100.00;93824.19;5508258;26;20141;-79
2024/04/12 05:36:55;;;;;;;4.47;1.85;;;;;;;11.39;100.00;93835.00;5523444;26;20005;-80
2024/04/12 05:39:23;;;;;;;6.03;1.90;;;;;;;11.53;100.00;93834.50;5521135;26;19997;-78
2024/04/12 05:41:53;;;;;;;5.80;2.08;;;;;;;11.66;100.00;93829.56;5517422;26;20001;-78
2024/04/12 05:44:22;;;;;;;12.55;2.20;;;;;;;11.81;100.00;93828.00;5498939;26;20459;-77
2024/04/12 05:46:48;;;;;;;5.78;2.08;;;;;;;11.94;100.00;93837.25;5515046;25;20009;-79
2024/04/12 05:49:14;;;;;;;5.78;1.85;;;;;;;12.09;100.00;93831.97;5490655;26;20074;-81
2024/04/12 05:51:41;;;;;;;5.35;1.80;;;;;;;12.25;100.00;93836.19;5467281;26;19998;-79
2024/04/12 05:54:15;;;;;;;6.00;2.05;;;;;;;12.45;100.00;93837.22;5502544;26;20076;-80
2024/04/12 05:56:44;;;;;;;5.07;1.85;;;;;;;12.63;100.00;93836.69;5483899;26;19994;-77
2024/04/12 05:59:16;;;;;;;10.43;2.58;;;;;;;12.86;100.00;93839.78;5466311;26;20002;-78
2024/04/12 06:01:46;;;;;;;6.53;2.10;;;;;;;13.07;100.00;93841.28;5494311;26;19998;-81
2024/04/12 06:04:14;;;;;;;7.68;2.22;;;;;;;13.22;100.00;93839.69;5519798;26;20008;-79
2024/04/12 06:06:43;;;;;;;6.75;2.28;;;;;;;13.45;100.00;93841.72;5510682;26;20476;-78
2024/04/12 06:09:19;;;;;;;4.30;1.90;;;;;;;13.67;100.00;93848.44;5462763;26;20433;-78
2024/04/12 06:11:47;;;;;;;8.68;2.22;;;;;;;13.92;100.00;93850.94;5484526;26;22472;-79
2024/04/12 06:14:13;;;;;;;7.70;2.33;;;;;;;14.15;100.00;93852.06;5515654;26;20016;-79
2024/04/12 06:16:40;;;;;;;6.18;2.00;;;;;;;14.62;100.00;93844.63;5502894;26;20080;-79
2024/04/12 06:19:05;;;;;;;7.35;2.10;;;;;;;15.43;100.00;93849.31;5512103;26;20512;-79
2024/04/12 06:21:32;;;;;;;5.93;2.15;;;;;;;16.16;100.00;93848.09;5493100;26;20065;-78
2024/04/12 06:23:58;;;;;;;10.23;2.20;;;;;;;16.93;100.00;93852.16;5501073;26;20001;-79
2024/04/12 06:26:24;;;;;;;8.35;1.98;;;;;;;17.63;98.81;93848.41;5459637;26;20111;-80
2024/04/12 06:28:51;;;;;;;6.38;2.40;;;;;;;18.29;89.27;93849.66;5499186;26;20005;-80
2024/04/12 06:31:20;;;;;;;7.50;1.98;;;;;;;18.90;86.94;93852.72;5509454;26;20637;-79
2024/04/12 06:33:46;;;;;;;11.70;2.17;;;;;;;19.38;82.89;93845.09;5513665;26;20012;-79
2024/04/12 06:36:13;;;;;;;10.10;2.17;;;;;;;19.92;82.24;93849.13;5487000;26;20004;-80
2024/04/12 06:38:39;;;;;;;10.98;2.15;;;;;;;20.49;79.47;93850.88;5513367;26;19994;-80
2024/04/12 06:41:10;;;;;;;5.50;2.08;;;;;;;20.92;73.51;93858.03;5523358;26;20496;-79
2024/04/12 06:43:50;;;;;;;9.40;2.42;;;;;;;21.37;69.67;93849.56;5500322;26;19997;-79
2024/04/12 06:46:18;;;;;;;7.13;1.98;;;;;;;21.71;66.24;93849.75;5487478;26;20024;-79
2024/04/12 06:48:44;;;;;;;6.55;2.15;;;;;;;22.19;65.31;93857.25;5456411;26;20080;-80
2024/04/12 06:51:13;;;;;;;8.02;2.10;;;;;;;22.42;58.55;93855.06;5488252;26;20045;-79
2024/04/12 06:53:44;;;;;;;7.72;2.30;;;;;;;22.17;58.91;93856.03;5487655;26;20005;-80
2024/04/12 06:56:16;;;;;;;9.27;2.30;;;;;;;22.11;58.12;93857.31;5487087;26;20012;-81
2024/04/12 06:58:43;;;;;;;5.32;2.38;;;;;;;21.87;58.75;93848.06;5487265;26;20001;-80
2024/04/12 07:01:11;;;;;;;7.15;2.00;;;;;;;21.62;62.15;93850.56;5484671;26;20073;-80
2024/04/12 07:03:37;;;;;;;5.88;2.10;;;;;;;21.61;59.29;93849.00;5489198;26;20034;-79
2024/04/12 07:06:03;;;;;;;7.53;2.10;;;;;;;21.21;58.15;93859.19;5489136;26;20082;-78
2024/04/12 07:08:29;;;;;;;9.20;2.20;;;;;;;21.26;61.12;93851.03;5516769;26;20523;-79
2024/04/12 07:10:59;;;;;;;9.13;2.25;;;;;;;20.56;64.17;93845.91;5503812;26;20002;-78
2024/04/12 07:13:27;;;;;;;10.77;2.10;;;;;;;20.48;66.33;93859.16;5488659;26;20399;-78
2024/04/12 07:15:56;;;;;;;7.00;2.10;;;;;;;20.11;69.61;93851.53;5425782;26;20010;-78
2024/04/12 07:18:23;;;;;;;7.30;2.20;;;;;;;20.04;74.00;93853.88;5519503;26;20005;-78
2024/04/12 07:20:49;;;;;;;6.68;2.15;;;;;;;19.82;73.21;93851.34;5479094;26;20313;-78
2024/04/12 07:23:15;;;;;;;11.35;2.83;;;;;;;19.29;74.27;93859.13;5441826;26;19998;-78
2024/04/12 07:25:45;;;;;;;11.05;2.45;;;;;;;19.56;77.11;93854.69;5488490;26;20013;-79
2024/04/12 07:28:14;;;;;;;4.88;1.90;;;;;;;19.16;76.08;93854.69;5504078;26;20012;-78
2024/04/12 07:30:46;;;;;;;6.68;2.10;;;;;;;19.07;77.38;93862.63;5490035;26;20002;-78
2024/04/12 07:33:15;;;;;;;8.13;1.95;;;;;;;19.06;76.57;93860.28;5492485;26;20000;-79
2024/04/12 07:35:48;;;;;;;7.00;2.25;;;;;;;18.75;72.47;93866.31;5508521;26;20006;-79
2024/04/12 07:38:15;;;;;;;5.63;2.13;;;;;;;18.76;70.16;93869.78;5488555;26;20515;-80
2024/04/12 07:40:46;;;;;;;6.65;2.05;;;;;;;18.68;72.00;93860.66;5480931;26;20007;-79
2024/04/12 07:43:12;;;;;;;7.63;2.30;;;;;;;18.52;70.01;93866.34;5507765;26;20049;-80
2024/04/12 07:45:41;;;;;;;5.78;2.30;;;;;;;18.55;72.87;93864.16;5508987;26;20021;-79
2024/04/12 07:48:41;;;;;;;5.72;2.25;;;;;;;18.51;70.27;93867.44;5505548;26;20008;-78
2024/04/12 07:51:00;;;;;;;8.02;2.05;;;;;;;18.45;73.96;93865.19;5457474;26;20465;-78
2024/04/12 07:53:30;;;;;;;9.27;2.47;;;;;;;18.76;73.75;93867.91;5514096;26;19994;-80
2024/04/12 07:56:09;;;;;;;7.35;2.10;;;;;;;18.96;72.23;93868.50;5500404;26;20002;-79
2024/04/12 07:58:36;;;;;;;10.32;2.10;;;;;;;19.05;69.42;93866.66;5500411;26;20002;-79
2024/04/12 08:01:25;;;;;;;6.43;1.90;;;;;;;18.83;69.40;93870.16;5489695;26;19994;-78
2024/04/12 08:03:56;;;;;;;6.93;2.45;;;;;;;18.93;69.14;93873.31;5489482;26;19994;-78
2024/04/12 08:06:55;;;;;;;7.18;2.30;;;;;;;18.88;72.44;93876.09;5489516;26;20001;-79
2024/04/12 08:09:22;;;;;;;8.15;2.92;;;;;;;19.26;69.68;93858.97;5498962;26;20002;-78
2024/04/12 08:11:51;;;;;;;8.60;2.20;;;;;;;19.23;70.49;93873.63;5506498;26;20341;-79
2024/04/12 08:14:22;;;;;;;3.28;1.80;;;;;;;19.08;69.22;93879.34;5487157;26;20005;-77
2024/04/12 08:16:52;;;;;;;7.93;2.15;;;;;;;18.86;69.89;93872.97;5453548;26;19995;-79
2024/04/12 08:19:38;;;;;;;5.10;2.13;;;;;;;18.88;70.83;93881.41;5500965;26;20072;-79
2024/04/12 08:22:04;;;;;;;6.53;2.20;;;;;;;18.99;70.16;93865.25;5515697;26;20013;-78
2024/04/12 08:24:30;;;;;;;6.82;2.30;;;;;;;19.06;71.29;93884.16;5485803;26;20040;-79
2024/04/12 08:26:57;;;;;;;6.47;2.30;;;;;;;19.13;74.92;93879.19;5500821;26;19993;-79
2024/04/12 08:29:26;;;;;;;6.78;2.28;;;;;;;19.19;72.08;93880.63;5485832;26;20002;-80
2024/04/12 08:32:04;;;;;;;7.13;1.98;;;;;;;19.15;72.59;93884.97;5485869;26;20014;-80
2024/04/12 08:34:31;;;;;;;5.78;1.90;;;;;;;19.16;73.68;93883.88;5485176;26;20010;-79
2024/04/12 08:36:57;;;;;;;6.95;2.10;;;;;;;19.16;74.03;93889.19;5485746;26;20043;-80
2024/04/12 08:39:26;;;;;;;10.65;2.72;;;;;;;19.19;75.18;93896.56;5483932;26;19998;-78
2024/04/12 08:42:04;;;;;;;5.65;2.20;;;;;;;19.36;74.71;93882.56;5482387;26;20509;-80
2024/04/12 08:44:30;;;;;;;7.68;2.33;;;;;;;19.38;76.80;93882.28;5498466;26;20002;-78
2024/04/12 08:47:15;;;;;;;8.75;2.42;;;;;;;19.35;74.09;93881.00;5455405;26;20014;-79
2024/04/12 08:49:48;;;;;;;11.25;2.25;;;;;;;19.41;77.11;93882.44;5493090;26;20073;-80
2024/04/12 08:52:28;;;;;;;7.30;2.15;;;;;;;19.55;71.12;93885.00;5526487;26;20746;-77
2024/04/12 08:55:01;;;;;;;11.27;2.20;;;;;;;19.54;70.39;93881.56;5522938;26;20050;-79
2024/04/12 08:57:27;;;;;;;11.55;2.30;;;;;;;19.42;70.28;93883.22;5502836;26;20002;-77
2024/04/12 08:59:53;;;;;;;9.68;2.40;;;;;;;19.52;68.16;93880.28;5493338;26;20005;-79
2024/04/12 09:02:22;;;;;;;6.95;2.10;;;;;;;19.74;69.54;93877.56;5506087;26;20010;-79
2024/04/12 09:04:47;;;;;;;9.73;2.88;;;;;;;19.68;67.07;93873.47;5504886;26;19998;-77
2024/04/12 09:07:14;;;;;;;7.20;2.13;;;;;;;19.61;66.06;93882.97;5473672;26;20013;-79
2024/04/12 09:09:45;;;;;;;8.25;2.40;;;;;;;19.67;69.07;93874.53;5499712;26;20045;-79
2024/04/12 09:12:13;;;;;;;5.55;2.28;;;;;;;19.69;67.70;93880.38;5507233;26;20400;-78
2024/04/12 09:14:44;;;;;;;10.43;2.78;;;;;;;19.84;69.66;93881.03;5526151;26;20532;-79
2024/04/12 09:17:14;;;;;;;10.00;2.67;;;;;;;20.14;70.39;93880.13;5507040;26;20348;-78
2024/04/12 09:19:45;;;;;;;8.73;2.30;;;;;;;20.47;67.45;93886.88;5519066;26;20359;-78
2024/04/12 09:22:17;;;;;;;9.25;2.20;;;;;;;20.36;63.83;93886.41;5487680;26;19998;-79
2024/04/12 09:24:52;;;;;;;7.57;2.10;;;;;;;20.46;61.65;93883.41;5440651;26;20520;-77
2024/04/12 09:27:22;;;;;;;6.68;2.53;;;;;;;20.44;61.92;93885.59;5483022;26;20012;-77
2024/04/12 09:29:54;;;;;;;9.07;2.28;;;;;;;20.57;60.04;93889.22;5487624;26;20341;-77
2024/04/12 09:35:12;;;;;;;8.20;2.28;;;;;;;20.58;62.50;93886.25;5522622;26;20062;-77
2024/04/12 09:37:42;;;;;;;10.02;2.10;;;;;;;20.74;61.04;93889.22;5486957;26;20047;-77
2024/04/12 09:45:21;;;;;;;8.73;2.40;;;;;;;20.81;59.92;93888.75;5518839;26;19997;-77
2024/04/12 10:37:47;;;;;;;9.13;2.58;;;;;;;21.20;53.17;93863.72;5498354;26;19997;-79
2024/04/12 10:40:13;;;;;;;3.33;1.27;;;;;;;21.08;53.70;93862.84;5493405;26;20385;-78
2024/04/12 10:42:42;;;;;;;7.15;2.25;;;;;;;20.96;53.44;93861.63;5507719;26;20014;-78
2024/04/12 10:45:15;;;;;;;2.60;1.40;;;;;;;20.99;51.03;93858.31;5474374;26;19994;-79
2024/04/12 10:47:44;;;;;;;6.75;2.20;;;;;;;21.15;54.12;93858.59;5471110;26;20329;-79
2024/04/12 10:50:13;;;;;;;7.28;2.33;;;;;;;21.46;57.15;93854.09;5506434;26;20486;-81
2024/04/12 10:52:40;;;;;;;8.25;1.67;;;;;;;21.60;51.20;93850.09;5510134;26;20253;-79
2024/04/12 10:55:08;;;;;;;8.80;2.40;;;;;;;21.51;53.24;93851.25;5505599;26;20026;-79
2024/04/12 10:57:47;;;;;;;8.07;2.47;;;;;;;21.70;53.36;93848.19;5502734;26;20018;-80
2024/04/12 11:00:15;;;;;;;8.80;2.47;;;;;;;21.49;52.99;93848.13;5517195;26;19997;-80
2024/04/12 11:02:44;;;;;;;8.20;2.60;;;;;;;21.92;53.57;93844.44;5509893;26;20009;-80
2024/04/12 11:07:43;;;;;;;;;;;;;;;21.87;55.28;93844.63;5502565;26;20005;-81
2024/04/12 11:10:22;;;;;;;7.90;2.67;;;;;;;21.78;51.68;93844.69;5490901;25;20159;-77
2024/04/12 11:13:08;;;;;;;8.65;2.78;;;;;;;21.88;54.35;93843.53;5497180;25;20017;-78
2024/04/12 11:32:05;;;;;;;8.00;2.50;;;;;;;22.43;50.15;93834.50;5497575;25;19994;-78
2024/04/12 11:34:32;;;;;;;5.78;2.25;;;;;;;22.41;49.79;93823.38;5508316;26;20456;-80
2024/04/12 11:37:05;;;;;;;7.88;2.90;;;;;;;21.98;46.66;93819.94;5485793;26;20012;-80
2024/04/12 11:39:35;;;;;;;6.75;2.00;;;;;;;22.04;49.47;93820.50;5509018;25;20352;-81
2024/04/12 11:42:03;;;;;;;10.40;2.72;;;;;;;22.13;46.26;93821.22;5478667;26;20016;-79
2024/04/12 11:44:35;;;;;;;4.35;2.03;;;;;;;22.00;47.16;93814.28;5492294;25;20001;-79
2024/04/12 11:47:03;;;;;;;13.32;2.42;;;;;;;22.07;47.62;93814.53;5505056;25;20009;-79
2024/04/12 11:49:41;;;;;;;5.82;2.20;;;;;;;22.04;45.62;93815.16;5484339;26;20001;-79
2024/04/12 11:52:15;;;;;;;6.28;2.17;;;;;;;22.01;46.09;93811.28;5507546;26;19998;-79
2024/04/12 11:54:53;;;;;;;6.13;2.30;;;;;;;22.14;47.44;93814.03;5510315;26;20013;-79
2024/04/12 11:57:22;;;;;;;7.13;2.60;;;;;;;22.11;48.05;93815.44;5505838;26;20009;-80
2024/04/12 11:59:54;;;;;;;8.27;2.60;;;;;;;22.04;48.07;93810.63;5474832;26;19998;-78
2024/04/12 12:02:20;;;;;;;;;;;;;;;22.19;46.14;93811.91;5486356;26;20009;-80
2024/04/12 12:04:48;;;;;;;11.15;2.70;;;;;;;22.40;46.25;93811.13;5498700;26;20351;-80
2024/04/12 12:07:16;;;;;;;5.40;1.98;;;;;;;22.53;44.32;93809.31;5507714;26;20046;-79
2024/04/12 12:09:42;;;;;;;7.00;2.10;;;;;;;22.48;44.34;93791.63;5506811;26;20034;-80
2024/04/12 12:12:12;;;;;;;6.97;2.33;;;;;;;22.61;46.67;93801.22;5483401;26;19998;-80
2024/04/12 12:14:42;;;;;;;5.57;2.13;;;;;;;22.54;46.48;93797.50;5499003;25;20371;-80
2024/04/12 12:17:09;;;;;;;7.63;2.72;;;;;;;22.63;48.08;93795.56;5499488;25;20028;-80
2024/04/12 12:19:35;;;;;;;9.65;2.80;;;;;;;22.71;46.43;93788.56;5515807;26;20002;-79
2024/04/12 12:22:01;;;;;;;8.80;2.35;;;;;;;22.78;49.82;93784.22;5515484;26;20007;-79
2024/04/12 12:24:27;;;;;;;6.25;2.45;;;;;;;22.86;48.52;93779.91;5503953;25;20009;-78
2024/04/12 12:26:52;;;;;;;8.15;2.60;;;;;;;22.77;45.11;93792.59;5493907;26;20081;-77
2024/04/12 12:29:18;;;;;;;5.05;2.25;;;;;;;22.74;45.80;93778.03;5485630;26;20012;-79
2024/04/12 12:31:46;;;;;;;10.75;2.65;;;;;;;22.86;49.16;93775.34;5502472;26;20434;-79
2024/04/12 12:34:14;;;;;;;9.93;3.13;;;;;;;22.95;46.55;93767.25;5522859;26;19997;-79
2024/04/12 12:36:40;;;;;;;6.10;2.42;;;;;;;22.86;47.37;93775.34;5500207;26;20009;-77
2024/04/12 12:39:06;;;;;;;7.13;2.67;;;;;;;22.74;46.99;93769.22;5507772;26;20358;-80
2024/04/12 12:41:32;;;;;;;5.70;2.55;;;;;;;22.75;47.69;93779.56;5522152;25;20012;-79
2024/04/12 12:44:00;;;;;;;7.93;2.80;;;;;;;22.61;47.75;93763.09;5520810;25;19997;-78
2024/04/12 12:46:26;;;;;;;6.28;2.58;;;;;;;22.48;45.84;93748.94;5504225;25;20374;-79
2024/04/12 12:48:55;;;;;;;9.18;2.53;;;;;;;22.58;48.84;93747.72;5486668;26;20035;-79
2024/04/12 12:51:26;;;;;;;7.45;2.88;;;;;;;22.57;48.71;93746.94;5485726;26;20005;-78
2024/04/12 12:54:00;;;;;;;6.07;2.43;;;;;;;22.49;48.25;93745.13;5477239;26;19994;-78
2024/04/12 12:56:31;;;;;;;4.18;1.95;;;;;;;22.71;47.79;93729.84;5509644;26;20262;-77
2024/04/12 12:58:59;;;;;;;7.03;2.60;;;;;;;22.79;48.86;93724.41;5474778;26;20005;-79
2024/04/12 13:01:34;;;;;;;4.70;2.22;;;;;;;22.60;47.73;93735.59;5488283;26;20415;-80
2024/04/12 13:04:04;;;;;;;8.98;2.47;;;;;;;22.51;46.03;93734.91;5503383;26;20592;-79